createdAt,value
2017-05-25T00:00:41.064Z,99.99
2017-05-25T00:02:02.905Z,99.99
2017-05-25T00:03:25.354Z,99.99
2017-05-25T00:04:47.210Z,99.99
2017-05-25T00:06:09.674Z,99.99
2017-05-25T00:07:31.843Z,99.99
2017-05-25T00:08:54.260Z,99.99
2017-05-25T00:10:16.414Z,99.99
2017-05-25T00:11:37.910Z,99.99
2017-05-25T00:12:59.735Z,99.99
2017-05-25T00:14:21.830Z,99.99
2017-05-25T00:15:44.039Z,99.99
2017-05-25T00:17:05.927Z,99.99
2017-05-25T00:18:28.075Z,99.99
2017-05-25T00:19:50.886Z,99.99
2017-05-25T00:21:13.075Z,99.99
2017-05-25T00:22:35.291Z,99.99
2017-05-25T00:23:57.116Z,99.99
2017-05-25T00:25:19.999Z,99.99
2017-05-25T00:26:42.155Z,99.99
2017-05-25T00:28:04.058Z,99.99
2017-05-25T00:29:25.895Z,99.99
2017-05-25T00:30:47.752Z,99.99
2017-05-25T00:32:09.269Z,99.99
2017-05-25T00:33:31.731Z,99.99
2017-05-25T00:34:53.244Z,99.99
2017-05-25T00:36:15.957Z,99.99
2017-05-25T00:37:38.165Z,99.99
2017-05-25T00:39:00.102Z,99.99
2017-05-25T00:40:22.572Z,99.99
2017-05-25T00:41:45.010Z,99.99
2017-05-25T00:43:06.199Z,99.99
2017-05-25T00:44:27.784Z,99.99
2017-05-25T00:45:49.433Z,99.99
2017-05-25T00:47:11.834Z,99.99
2017-05-25T00:48:33.996Z,99.99
2017-05-25T00:49:56.593Z,99.99
2017-05-25T00:51:18.752Z,99.99
2017-05-25T00:52:41.604Z,99.99
2017-05-25T00:54:03.493Z,99.99
2017-05-25T00:55:25.330Z,99.99
2017-05-25T00:56:46.625Z,99.99
2017-05-25T00:58:09.438Z,99.99
2017-05-25T00:59:31.524Z,99.99
2017-05-25T01:00:53.091Z,99.99
2017-05-25T01:02:14.621Z,99.99
2017-05-25T01:03:36.740Z,99.99
2017-05-25T01:04:58.244Z,99.99
2017-05-25T01:06:20.403Z,99.99
2017-05-25T01:07:42.871Z,99.99
2017-05-25T01:09:04.700Z,99.99
2017-05-25T01:10:26.536Z,99.99
2017-05-25T01:11:48.702Z,99.99
2017-05-25T01:13:10.229Z,99.99
2017-05-25T01:14:32.417Z,99.99
2017-05-25T01:15:54.248Z,99.99
2017-05-25T01:17:16.104Z,99.99
2017-05-25T01:18:38.239Z,99.99
2017-05-25T01:20:00.413Z,99.99
2017-05-25T01:21:22.551Z,99.99
2017-05-25T01:22:44.379Z,99.99
2017-05-25T01:24:06.672Z,99.99
2017-05-25T01:25:29.493Z,99.99
2017-05-25T01:26:51.314Z,99.99
2017-05-25T01:28:13.151Z,99.99
2017-05-25T01:29:34.994Z,99.99
2017-05-25T01:30:57.085Z,99.99
2017-05-25T01:32:19.546Z,99.99
2017-05-25T01:33:41.695Z,99.99
2017-05-25T01:35:03.539Z,99.99
2017-05-25T01:36:25.692Z,99.99
2017-05-25T01:37:47.201Z,99.99
2017-05-25T01:39:09.020Z,99.99
2017-05-25T01:40:30.226Z,99.99
2017-05-25T01:41:52.681Z,99.99
2017-05-25T01:43:14.609Z,99.99
2017-05-25T01:44:37.082Z,99.99
2017-05-25T01:45:59.284Z,99.99
2017-05-25T01:47:21.813Z,99.99
2017-05-25T01:48:43.992Z,99.99
2017-05-25T01:50:05.863Z,99.99
2017-05-25T01:51:27.676Z,99.99
2017-05-25T01:52:49.503Z,99.99
2017-05-25T01:54:11.333Z,99.99
2017-05-25T01:55:32.854Z,99.99
2017-05-25T01:56:55.000Z,99.99
2017-05-25T01:58:17.477Z,99.99
2017-05-25T01:59:39.756Z,99.99
2017-05-25T02:01:01.950Z,99.99
2017-05-25T02:02:24.103Z,99.99
2017-05-25T02:03:46.823Z,99.99
2017-05-25T02:05:09.049Z,99.99
2017-05-25T02:06:30.582Z,99.99
2017-05-25T02:07:52.877Z,99.99
2017-05-25T02:09:15.004Z,99.99
2017-05-25T02:10:37.719Z,99.99
2017-05-25T02:11:59.862Z,99.99
2017-05-25T02:13:22.014Z,99.99
2017-05-25T02:14:43.887Z,99.99
2017-05-25T02:16:06.031Z,99.99
2017-05-25T02:17:28.220Z,99.99
2017-05-25T02:18:49.424Z,99.99
2017-05-25T02:20:11.670Z,99.99
2017-05-25T02:21:33.504Z,99.99
2017-05-25T02:22:56.007Z,99.99
2017-05-25T02:24:17.814Z,99.99
2017-05-25T02:25:40.008Z,99.99
2017-05-25T02:27:02.461Z,99.99
2017-05-25T02:28:24.303Z,99.99
2017-05-25T02:29:46.144Z,99.99
2017-05-25T02:31:08.639Z,99.99
2017-05-25T02:32:30.922Z,99.99
2017-05-25T02:33:52.911Z,99.99
2017-05-25T02:35:14.752Z,99.99
2017-05-25T02:36:36.835Z,99.99
2017-05-25T02:37:58.998Z,99.99
2017-05-25T02:39:21.214Z,99.99
2017-05-25T02:40:43.521Z,99.99
2017-05-25T02:42:05.593Z,99.99
2017-05-25T02:43:27.412Z,99.99
2017-05-25T02:44:48.620Z,99.99
2017-05-25T02:46:11.085Z,99.99
2017-05-25T02:47:33.261Z,99.99
2017-05-25T02:48:55.411Z,99.99
2017-05-25T02:50:16.932Z,99.99
2017-05-25T02:51:39.087Z,99.99
2017-05-25T02:53:01.545Z,99.99
2017-05-25T02:54:23.073Z,99.99
2017-05-25T02:55:45.217Z,99.99
2017-05-25T02:57:07.360Z,99.99
2017-05-25T02:58:29.486Z,99.99
2017-05-25T02:59:51.308Z,99.99
2017-05-25T03:01:13.528Z,99.99
2017-05-25T03:02:35.421Z,99.99
2017-05-25T03:03:58.245Z,99.99
2017-05-25T03:05:20.545Z,99.99
2017-05-25T03:06:43.011Z,99.99
2017-05-25T03:08:04.516Z,99.99
2017-05-25T03:09:26.956Z,99.99
2017-05-25T03:10:49.423Z,99.99
2017-05-25T03:12:10.946Z,99.99
2017-05-25T03:13:32.463Z,99.99
2017-05-25T03:14:54.745Z,99.99
2017-05-25T03:16:17.016Z,99.99
2017-05-25T03:17:39.193Z,99.99
2017-05-25T03:19:01.013Z,99.99
2017-05-25T03:20:23.760Z,99.99
2017-05-25T03:21:45.261Z,99.99
2017-05-25T03:23:07.093Z,99.99
2017-05-25T03:24:28.922Z,99.99
2017-05-25T03:25:50.813Z,99.99
2017-05-25T03:27:13.571Z,99.99
2017-05-25T03:28:35.415Z,99.99
2017-05-25T03:29:57.873Z,99.99
2017-05-25T03:31:20.121Z,99.99
2017-05-25T03:32:42.278Z,99.99
2017-05-25T03:34:03.861Z,99.99
2017-05-25T03:35:25.713Z,99.99
2017-05-25T03:36:47.907Z,99.99
2017-05-25T03:38:10.151Z,99.99
2017-05-25T03:39:32.010Z,99.99
2017-05-25T03:40:53.535Z,99.99
2017-05-25T03:42:15.999Z,99.99
2017-05-25T03:43:37.573Z,99.99
2017-05-25T03:44:59.466Z,99.99
2017-05-25T03:46:20.989Z,99.99
2017-05-25T03:47:42.803Z,99.99
2017-05-25T03:49:04.703Z,99.99
2017-05-25T03:50:26.866Z,99.99
2017-05-25T03:51:49.003Z,99.99
2017-05-25T03:53:11.534Z,99.99
2017-05-25T03:54:33.493Z,99.99
2017-05-25T03:55:55.961Z,99.99
2017-05-25T03:57:17.494Z,99.99
2017-05-25T03:58:39.620Z,99.99
2017-05-25T04:00:00.813Z,99.99
2017-05-25T04:01:22.970Z,99.99
2017-05-25T04:02:43.926Z,99.99
2017-05-25T04:04:06.511Z,99.99
2017-05-25T04:05:28.671Z,99.99
2017-05-25T04:06:50.652Z,99.99
2017-05-25T04:08:13.246Z,99.99
2017-05-25T04:09:35.764Z,99.99
2017-05-25T04:10:57.884Z,99.99
2017-05-25T04:12:20.056Z,99.99
2017-05-25T04:13:42.604Z,99.99
2017-05-25T04:15:04.365Z,99.99
2017-05-25T04:16:25.583Z,99.99
2017-05-25T04:17:48.093Z,99.99
2017-05-25T04:19:10.231Z,99.99
2017-05-25T04:20:32.664Z,99.99
2017-05-25T04:21:54.501Z,99.99
2017-05-25T04:23:16.737Z,99.99
2017-05-25T04:24:38.562Z,99.99
2017-05-25T04:26:01.036Z,99.99
2017-05-25T04:27:23.524Z,99.99
2017-05-25T04:28:46.094Z,99.99
2017-05-25T04:30:07.316Z,99.99
2017-05-25T04:31:29.496Z,99.99
2017-05-25T04:32:51.683Z,99.99
2017-05-25T04:34:13.194Z,99.99
2017-05-25T04:35:35.356Z,99.99
2017-05-25T04:36:58.186Z,99.99
2017-05-25T04:38:20.016Z,99.99
2017-05-25T04:39:42.174Z,99.99
2017-05-25T04:41:04.006Z,99.99
2017-05-25T04:42:26.099Z,99.99
2017-05-25T04:43:47.743Z,99.99
2017-05-25T04:45:09.878Z,99.99
2017-05-25T04:46:32.545Z,99.99
2017-05-25T04:47:55.315Z,99.99
2017-05-25T04:49:17.155Z,99.99
2017-05-25T04:50:38.995Z,99.99
2017-05-25T04:52:00.833Z,99.99
2017-05-25T04:53:23.009Z,99.99
2017-05-25T04:54:45.237Z,99.99
2017-05-25T04:56:06.752Z,99.99
2017-05-25T04:57:28.576Z,99.99
2017-05-25T04:58:51.045Z,99.99
2017-05-25T05:00:12.976Z,99.99
2017-05-25T05:01:34.882Z,99.99
2017-05-25T05:02:56.760Z,99.99
2017-05-25T05:04:18.985Z,99.99
2017-05-25T05:05:40.844Z,99.99
2017-05-25T05:07:02.476Z,99.99
2017-05-25T05:08:25.076Z,99.99
2017-05-25T05:09:47.879Z,99.99
2017-05-25T05:11:09.780Z,99.99
2017-05-25T05:12:31.936Z,99.99
2017-05-25T05:13:54.091Z,99.99
2017-05-25T05:15:16.488Z,99.99
2017-05-25T05:16:38.652Z,99.99
2017-05-25T05:18:00.203Z,99.99
2017-05-25T05:19:22.133Z,99.99
2017-05-25T05:20:43.992Z,99.99
2017-05-25T05:22:05.517Z,99.99
2017-05-25T05:23:27.048Z,99.99
2017-05-25T05:24:49.512Z,99.99
2017-05-25T05:26:12.013Z,99.99
2017-05-25T05:27:34.247Z,99.99
2017-05-25T05:28:56.214Z,99.99
2017-05-25T05:30:17.773Z,99.99
2017-05-25T05:31:39.063Z,99.99
2017-05-25T05:33:01.352Z,99.99
2017-05-25T05:34:23.196Z,99.99
2017-05-25T05:35:45.055Z,99.99
2017-05-25T05:37:07.884Z,99.99
2017-05-25T05:38:30.040Z,99.99
2017-05-25T05:39:51.937Z,99.99
2017-05-25T05:41:13.973Z,99.99
2017-05-25T05:42:36.596Z,99.99
2017-05-25T05:43:59.071Z,99.99
2017-05-25T05:45:20.587Z,99.99
2017-05-25T05:46:42.424Z,99.99
2017-05-25T05:48:05.558Z,99.99
2017-05-25T05:49:27.118Z,99.99
2017-05-25T05:50:49.315Z,99.99
2017-05-25T05:52:11.154Z,99.99
2017-05-25T05:53:33.343Z,99.99
2017-05-25T05:54:55.500Z,99.99
2017-05-25T05:56:17.341Z,99.99
2017-05-25T05:57:39.676Z,99.99
2017-05-25T05:59:01.923Z,99.99
2017-05-25T06:00:23.972Z,99.99
2017-05-25T06:01:46.462Z,99.99
2017-05-25T06:03:08.685Z,99.99
2017-05-25T06:04:31.285Z,99.99
2017-05-25T06:05:53.448Z,99.99
2017-05-25T06:07:15.624Z,99.99
2017-05-25T06:08:37.563Z,99.99
2017-05-25T06:09:59.753Z,99.99
2017-05-25T06:11:21.999Z,99.99
2017-05-25T06:12:44.185Z,99.99
2017-05-25T06:14:06.322Z,99.99
2017-05-25T06:15:28.605Z,99.99
2017-05-25T06:16:51.079Z,99.99
2017-05-25T06:18:13.313Z,99.99
2017-05-25T06:19:35.464Z,99.99
2017-05-25T06:20:58.123Z,99.99
2017-05-25T06:22:20.375Z,99.99
2017-05-25T06:23:42.222Z,99.99
2017-05-25T06:25:04.411Z,99.99
2017-05-25T06:26:26.871Z,99.99
2017-05-25T06:27:48.397Z,99.99
2017-05-25T06:29:11.776Z,99.99
2017-05-25T06:30:36.280Z,99.99
2017-05-25T06:31:59.669Z,99.99
2017-05-25T06:33:21.582Z,99.99
2017-05-25T06:34:43.748Z,99.99
2017-05-25T06:37:48.990Z,99.99
2017-05-25T06:39:11.846Z,99.99
2017-05-25T06:40:35.945Z,99.99
2017-05-25T06:41:58.535Z,99.99
2017-05-25T06:43:22.765Z,99.99
2017-05-25T06:44:45.237Z,99.99
2017-05-25T06:46:07.705Z,99.99
2017-05-25T06:47:29.935Z,99.99
2017-05-25T06:48:54.121Z,99.99
2017-05-25T06:50:16.506Z,99.99
2017-05-25T06:51:38.972Z,99.1
2017-05-25T06:53:01.633Z,98.81
2017-05-25T06:54:23.907Z,99.57
2017-05-25T06:55:46.062Z,99.48
2017-05-25T06:57:08.240Z,97.66
2017-05-25T06:58:30.399Z,97.37
2017-05-25T06:59:52.182Z,96.8
2017-05-25T07:01:14.040Z,96.61
2017-05-25T07:02:35.903Z,96.22
2017-05-25T07:03:58.554Z,95.84
2017-05-25T07:05:21.075Z,96.89
2017-05-25T07:06:43.243Z,96.8
2017-05-25T07:08:05.739Z,95.84
2017-05-25T07:09:27.581Z,95.75
2017-05-25T07:10:50.003Z,96.7
2017-05-25T07:12:11.866Z,95.56
2017-05-25T07:13:34.423Z,95.17
2017-05-25T07:14:56.603Z,94.31
2017-05-25T07:16:19.601Z,94.12
2017-05-25T07:17:41.772Z,95.46
2017-05-25T07:19:04.250Z,94.6
2017-05-25T07:20:26.149Z,94.7
2017-05-25T07:21:49.101Z,95.84
2017-05-25T07:23:11.391Z,94.31
2017-05-25T07:24:33.244Z,93.5
2017-05-25T07:25:55.396Z,92.54
2017-05-25T07:27:18.305Z,92.35
2017-05-25T07:28:40.140Z,90.82
2017-05-25T07:30:02.409Z,89.9
2017-05-25T07:31:24.536Z,89.04
2017-05-25T07:32:46.358Z,88.66
2017-05-25T07:34:09.237Z,88.37
2017-05-25T07:35:31.105Z,86.21
2017-05-25T07:36:53.586Z,84.88
2017-05-25T07:38:15.771Z,83.67
2017-05-25T07:39:37.630Z,82.42
2017-05-25T07:41:00.103Z,81.12
2017-05-25T07:42:22.582Z,77.51
2017-05-25T07:43:45.499Z,76.98
2017-05-25T07:45:07.503Z,76.37
2017-05-25T07:46:29.343Z,75.31
2017-05-25T07:47:51.821Z,74.87
2017-05-25T07:49:13.696Z,76.84
2017-05-25T07:50:36.268Z,76.37
2017-05-25T07:51:58.494Z,76.5
2017-05-25T07:53:21.233Z,76.88
2017-05-25T07:54:43.708Z,76.79
2017-05-25T07:56:06.213Z,76.79
2017-05-25T07:57:28.199Z,73.72
2017-05-25T07:58:50.494Z,71.87
2017-05-25T08:00:13.360Z,70.33
2017-05-25T08:01:35.523Z,69.08
2017-05-25T08:02:58.085Z,68.09
2017-05-25T08:04:20.564Z,68.13
2017-05-25T08:05:43.183Z,66.68
2017-05-25T08:07:05.039Z,67.8
2017-05-25T08:08:27.319Z,68.83
2017-05-25T08:09:49.552Z,68.38
2017-05-25T08:11:11.972Z,68.86
2017-05-25T08:12:34.118Z,69.6
2017-05-25T08:13:55.658Z,69.6
2017-05-25T08:15:17.828Z,69.08
2017-05-25T08:16:40.010Z,68.41
2017-05-25T08:18:02.214Z,68.41
2017-05-25T08:19:24.112Z,68.44
2017-05-25T08:20:46.583Z,67.51
2017-05-25T08:22:09.375Z,67.42
2017-05-25T08:23:31.573Z,65.69
2017-05-25T08:24:53.411Z,64.4
2017-05-25T08:26:15.933Z,63.64
2017-05-25T08:27:38.455Z,65.69
2017-05-25T08:29:00.647Z,66.71
2017-05-25T08:30:22.838Z,67.35
2017-05-25T08:31:44.666Z,65.75
2017-05-25T08:33:07.079Z,64.79
2017-05-25T08:34:29.585Z,66.2
2017-05-25T08:35:51.764Z,66.77
2017-05-25T08:37:13.300Z,68.6
2017-05-25T08:38:35.446Z,67.83
2017-05-25T08:39:57.332Z,66.39
2017-05-25T08:41:19.509Z,68.85
2017-05-25T08:42:41.852Z,70.84
2017-05-25T08:44:03.735Z,67.61
2017-05-25T08:45:25.944Z,65.66
2017-05-25T08:46:47.791Z,65.66
2017-05-25T08:48:10.260Z,65.66
2017-05-25T08:49:32.503Z,65.14
2017-05-25T08:50:55.001Z,64.76
2017-05-25T08:52:17.193Z,65.33
2017-05-25T08:53:39.424Z,66.58
2017-05-25T08:55:02.223Z,65.75
2017-05-25T08:56:23.764Z,66.52
2017-05-25T08:57:46.401Z,64.82
2017-05-25T08:59:08.594Z,64.08
2017-05-25T09:00:31.453Z,64.89
2017-05-25T09:01:53.616Z,63.12
2017-05-25T09:03:15.786Z,64.28
2017-05-25T09:04:38.264Z,63.28
2017-05-25T09:06:00.399Z,64.43
2017-05-25T09:07:22.572Z,63.48
2017-05-25T09:08:44.443Z,65.11
2017-05-25T09:10:06.356Z,62.71
2017-05-25T09:11:29.206Z,62.16
2017-05-25T09:12:51.687Z,62.23
2017-05-25T09:14:16.081Z,61.39
2017-05-25T09:15:38.542Z,62.64
2017-05-25T09:17:00.727Z,61.19
2017-05-25T09:18:22.895Z,60.14
2017-05-25T09:19:45.383Z,61.13
2017-05-25T09:21:07.924Z,59.72
2017-05-25T09:22:30.636Z,58.97
2017-05-25T09:23:53.109Z,61.16
2017-05-25T09:25:15.291Z,61.8
2017-05-25T09:26:37.464Z,64.28
2017-05-25T09:27:59.752Z,66.52
2017-05-25T09:29:22.387Z,61.13
2017-05-25T09:30:44.574Z,62.29
2017-05-25T09:32:06.722Z,63.06
2017-05-25T09:33:29.592Z,63.51
2017-05-25T09:34:52.195Z,64.28
2017-05-25T09:36:14.685Z,63.41
2017-05-25T09:37:36.883Z,61.32
2017-05-25T09:38:59.037Z,60.75
2017-05-25T09:40:20.972Z,61
2017-05-25T09:41:43.294Z,62.51
2017-05-25T09:43:05.173Z,62.68
2017-05-25T09:44:28.044Z,62.71
2017-05-25T09:45:50.218Z,64.4
2017-05-25T09:47:12.773Z,64.95
2017-05-25T09:48:34.933Z,65.05
2017-05-25T09:49:57.942Z,66.33
2017-05-25T09:51:19.681Z,67.29
2017-05-25T09:52:41.629Z,68.54
2017-05-25T09:54:03.842Z,68.06
2017-05-25T09:55:26.069Z,66.91
2017-05-25T09:56:47.913Z,66.77
2017-05-25T09:58:10.505Z,66.42
2017-05-25T09:59:33.093Z,67.54
2017-05-25T10:00:55.565Z,66.39
2017-05-25T10:02:17.689Z,64.79
2017-05-25T10:03:39.315Z,65.2
2017-05-25T10:05:01.305Z,64.05
2017-05-25T10:06:24.003Z,64.92
2017-05-25T10:07:47.484Z,66.04
2017-05-25T10:09:08.697Z,66.14
2017-05-25T10:10:30.712Z,66.2
2017-05-25T10:11:53.299Z,65.66
2017-05-25T10:13:15.512Z,67.22
2017-05-25T10:14:38.119Z,68.29
2017-05-25T10:16:00.282Z,66.84
2017-05-25T10:17:22.765Z,66.84
2017-05-25T10:18:44.924Z,66.68
2017-05-25T10:20:07.405Z,66.58
2017-05-25T10:21:29.902Z,65.14
2017-05-25T10:22:52.064Z,64.21
2017-05-25T10:24:14.085Z,64.5
2017-05-25T10:25:36.273Z,62.38
2017-05-25T10:26:58.852Z,61.25
2017-05-25T10:28:21.133Z,60.97
2017-05-25T10:29:43.643Z,60.87
2017-05-25T10:31:05.538Z,62.12
2017-05-25T10:32:27.826Z,61.25
2017-05-25T10:33:50.673Z,60.58
2017-05-25T10:35:12.935Z,61.38
2017-05-25T10:36:35.415Z,61
2017-05-25T10:37:57.273Z,60.71
2017-05-25T10:39:19.178Z,57.72
2017-05-25T10:40:41.365Z,60.32
2017-05-25T10:42:03.931Z,61.16
2017-05-25T10:43:26.167Z,61
2017-05-25T10:44:48.706Z,61.19
2017-05-25T10:46:10.895Z,62.03
2017-05-25T10:47:33.403Z,61.07
2017-05-25T10:48:55.600Z,60.39
2017-05-25T10:50:18.132Z,60.77
2017-05-25T10:51:40.194Z,62.93
2017-05-25T10:53:02.632Z,62.93
2017-05-25T10:54:24.806Z,63.09
2017-05-25T10:55:47.587Z,62.64
2017-05-25T10:57:09.784Z,61.13
2017-05-25T10:58:32.024Z,60
2017-05-25T10:59:54.554Z,60.58
2017-05-25T11:01:17.062Z,59.45
2017-05-25T11:02:39.584Z,61.38
2017-05-25T11:04:02.084Z,63.79
2017-05-25T11:05:24.372Z,63.09
2017-05-25T11:06:46.941Z,62.06
2017-05-25T11:08:09.102Z,60
2017-05-25T11:09:31.729Z,58.97
2017-05-25T11:10:53.490Z,58.88
2017-05-25T11:12:15.780Z,59.55
2017-05-25T11:13:37.645Z,60
2017-05-25T11:14:59.981Z,60.71
2017-05-25T11:16:22.152Z,61.19
2017-05-25T11:17:43.999Z,60.77
2017-05-25T11:19:06.642Z,58.62
2017-05-25T11:20:29.151Z,58.14
2017-05-25T11:21:51.325Z,59.1
2017-05-25T11:23:14.125Z,59.07
2017-05-25T11:24:36.451Z,59.36
2017-05-25T11:25:58.314Z,62.09
2017-05-25T11:27:21.043Z,62.03
2017-05-25T11:28:43.581Z,63.02
2017-05-25T11:30:06.081Z,62.54
2017-05-25T11:31:28.640Z,61.16
2017-05-25T11:32:50.630Z,60
2017-05-25T11:34:12.821Z,59.81
2017-05-25T11:35:35.014Z,58.91
2017-05-25T11:36:57.180Z,60.13
2017-05-25T11:38:19.044Z,58.91
2017-05-25T11:39:41.893Z,60.23
2017-05-25T11:41:03.831Z,60.06
2017-05-25T11:42:26.323Z,60.93
2017-05-25T11:43:48.498Z,60.61
2017-05-25T11:45:10.701Z,62.41
2017-05-25T11:46:33.187Z,63.22
2017-05-25T11:47:55.377Z,61.52
2017-05-25T11:49:17.861Z,59.65
2017-05-25T11:50:40.648Z,57.29
2017-05-25T11:52:02.499Z,58.33
2017-05-25T11:53:24.038Z,59.13
2017-05-25T11:54:46.581Z,58.07
2017-05-25T11:56:09.092Z,56.74
2017-05-25T11:57:31.587Z,56.84
2017-05-25T11:58:53.762Z,56.36
2017-05-25T12:00:15.711Z,56.74
2017-05-25T12:01:38.488Z,57.78
2017-05-25T12:03:00.772Z,58.42
2017-05-25T12:04:23.136Z,57.75
2017-05-25T12:05:45.053Z,59.03
2017-05-25T12:07:07.240Z,59.84
2017-05-25T12:08:29.106Z,60.03
2017-05-25T12:09:51.456Z,60.61
2017-05-25T12:11:13.951Z,61.87
2017-05-25T12:12:36.421Z,59.87
2017-05-25T12:13:58.635Z,59.61
2017-05-25T12:15:20.191Z,60.26
2017-05-25T12:16:42.226Z,60.64
2017-05-25T12:18:04.724Z,62.8
2017-05-25T12:19:27.226Z,62.32
2017-05-25T12:20:49.393Z,62.8
2017-05-25T12:22:11.746Z,63.34
2017-05-25T12:23:34.539Z,62.99
2017-05-25T12:24:56.831Z,63.09
2017-05-25T12:26:18.669Z,65.01
2017-05-25T12:27:40.537Z,64.5
2017-05-25T12:29:02.741Z,65.27
2017-05-25T12:30:24.933Z,65.37
2017-05-25T12:31:47.440Z,62.7
2017-05-25T12:33:09.591Z,62.35
2017-05-25T12:34:32.447Z,61.77
2017-05-25T12:35:54.641Z,62.93
2017-05-25T12:37:17.210Z,63.09
2017-05-25T12:38:39.700Z,61
2017-05-25T12:40:01.912Z,63.89
2017-05-25T12:41:24.397Z,61.9
2017-05-25T12:42:46.275Z,62.79
2017-05-25T12:44:08.812Z,60.38
2017-05-25T12:45:30.971Z,61.13
2017-05-25T12:46:53.600Z,63.31
2017-05-25T12:48:15.760Z,62.15
2017-05-25T12:49:37.631Z,60.26
2017-05-25T12:51:00.433Z,58.33
2017-05-25T12:52:22.378Z,59.58
2017-05-25T12:53:44.881Z,58.91
2017-05-25T12:55:07.034Z,59
2017-05-25T12:56:29.215Z,59.1
2017-05-25T12:57:51.406Z,60.06
2017-05-25T12:59:13.338Z,59.17
2017-05-25T13:00:35.816Z,59.84
2017-05-25T13:01:58.366Z,59.55
2017-05-25T13:03:20.221Z,59.75
2017-05-25T13:04:42.108Z,59.75
2017-05-25T13:06:04.381Z,60.61
2017-05-25T13:07:27.169Z,58.42
2017-05-25T13:08:48.713Z,60.26
2017-05-25T13:10:11.011Z,59.87
2017-05-25T13:11:32.920Z,59.39
2017-05-25T13:12:55.707Z,59.3
2017-05-25T13:14:17.575Z,58.72
2017-05-25T13:15:39.729Z,59.32
2017-05-25T13:17:01.977Z,61.77
2017-05-25T13:18:24.612Z,61.58
2017-05-25T13:19:47.102Z,60.9
2017-05-25T13:21:08.970Z,61.77
2017-05-25T13:22:31.472Z,62.99
2017-05-25T13:23:53.939Z,61.77
2017-05-25T13:25:15.807Z,62.12
2017-05-25T13:26:37.705Z,62.22
2017-05-25T13:27:59.552Z,61.96
2017-05-25T13:29:22.432Z,62.12
2017-05-25T13:30:44.909Z,61.48
2017-05-25T13:32:07.413Z,62.18
2017-05-25T13:33:29.606Z,61.35
2017-05-25T13:34:52.481Z,59.55
2017-05-25T13:36:14.336Z,58.58
2017-05-25T13:37:36.212Z,59.35
2017-05-25T13:38:58.685Z,57.54
2017-05-25T13:40:20.902Z,58.12
2017-05-25T13:41:42.888Z,58.87
2017-05-25T13:43:05.475Z,60.22
2017-05-25T13:44:27.998Z,61.25
2017-05-25T13:45:50.421Z,60.48
2017-05-25T13:47:12.583Z,60.68
2017-05-25T13:48:34.438Z,60.74
2017-05-25T13:49:56.926Z,60.28
2017-05-25T13:51:19.724Z,61.06
2017-05-25T13:52:41.574Z,61.35
2017-05-25T13:54:03.101Z,59.55
2017-05-25T13:55:25.579Z,60.03
2017-05-25T13:56:48.352Z,61.25
2017-05-25T13:58:10.843Z,60.77
2017-05-25T13:59:33.388Z,60.96
2017-05-25T14:00:55.579Z,60.68
2017-05-25T14:02:17.466Z,60.19
2017-05-25T14:03:39.949Z,63.02
2017-05-25T14:05:02.117Z,64.43
2017-05-25T14:06:24.300Z,65.11
2017-05-25T14:07:47.153Z,63.57
2017-05-25T14:09:09.381Z,62.83
2017-05-25T14:10:31.279Z,62.45
2017-05-25T14:11:53.487Z,61.58
2017-05-25T14:13:15.774Z,62.48
2017-05-25T14:14:38.277Z,63.7
2017-05-25T14:16:00.913Z,62.45
2017-05-25T14:17:23.097Z,61.61
2017-05-25T14:18:45.292Z,62.38
2017-05-25T14:20:07.151Z,61.93
2017-05-25T14:21:29.638Z,62.86
2017-05-25T14:22:52.261Z,62.22
2017-05-25T14:24:14.800Z,63.6
2017-05-25T14:25:36.952Z,63.02
2017-05-25T14:26:59.419Z,63.6
2017-05-25T14:28:21.677Z,63.6
2017-05-25T14:29:44.471Z,64.63
2017-05-25T14:31:06.732Z,64.25
2017-05-25T14:32:28.882Z,64.18
2017-05-25T14:33:51.096Z,62.83
2017-05-25T14:35:13.538Z,63.31
2017-05-25T14:36:36.149Z,64.18
2017-05-25T14:37:58.325Z,64.53
2017-05-25T14:39:20.877Z,67.29
2017-05-25T14:40:42.980Z,65.88
2017-05-25T14:42:05.152Z,64.73
2017-05-25T14:43:27.298Z,65.63
2017-05-25T14:44:49.602Z,64.73
2017-05-25T14:46:12.116Z,64.43
2017-05-25T14:47:33.990Z,63.79
2017-05-25T14:48:56.204Z,64.63
2017-05-25T14:50:18.667Z,63.38
2017-05-25T14:51:41.534Z,64.66
2017-05-25T14:53:04.019Z,65.11
2017-05-25T14:54:26.192Z,64.82
2017-05-25T14:55:48.121Z,64.28
2017-05-25T14:57:11.072Z,65.63
2017-05-25T14:58:33.231Z,64.66
2017-05-25T14:59:55.413Z,64.02
2017-05-25T15:01:17.597Z,65.01
2017-05-25T15:02:40.520Z,65.53
2017-05-25T15:04:02.983Z,64.66
2017-05-25T15:05:25.448Z,63.79
2017-05-25T15:06:46.980Z,63.34
2017-05-25T15:08:09.401Z,62.6
2017-05-25T15:09:31.601Z,62.7
2017-05-25T15:10:53.770Z,66.14
2017-05-25T15:12:15.963Z,65.69
2017-05-25T15:13:38.876Z,65.14
2017-05-25T15:15:01.376Z,64.34
2017-05-25T15:16:23.923Z,66.2
2017-05-25T15:17:46.085Z,66.75
2017-05-25T15:19:09.066Z,65.5
2017-05-25T15:20:31.579Z,63.89
2017-05-25T15:21:53.721Z,64.47
2017-05-25T15:23:15.892Z,63.82
2017-05-25T15:24:38.042Z,62.96
2017-05-25T15:26:00.201Z,62.38
2017-05-25T15:27:22.804Z,64.59
2017-05-25T15:28:45.272Z,65.53
2017-05-25T15:30:08.058Z,66.88
2017-05-25T15:31:30.271Z,67.03
2017-05-25T15:32:51.819Z,66.27
2017-05-25T15:34:14.323Z,65.81
2017-05-25T15:35:36.233Z,66.59
2017-05-25T15:36:58.741Z,65.88
2017-05-25T15:38:20.575Z,66.07
2017-05-25T15:39:42.749Z,65.81
2017-05-25T15:41:05.310Z,68
2017-05-25T15:42:27.820Z,67.49
2017-05-25T15:43:49.362Z,67.58
2017-05-25T15:45:11.873Z,67.97
2017-05-25T15:46:34.694Z,68.64
2017-05-25T15:47:56.512Z,69.57
2017-05-25T15:49:18.675Z,69.38
2017-05-25T15:50:40.588Z,69.28
2017-05-25T15:52:02.989Z,68.9
2017-05-25T15:53:25.543Z,69.85
2017-05-25T15:54:48.042Z,71.01
2017-05-25T15:56:10.528Z,72.13
2017-05-25T15:57:33.326Z,71.94
2017-05-25T15:58:55.885Z,72.36
2017-05-25T16:00:18.051Z,72.8
2017-05-25T16:01:40.530Z,71.65
2017-05-25T16:03:02.999Z,73.28
2017-05-25T16:04:25.393Z,73
2017-05-25T16:05:47.353Z,74.5
2017-05-25T16:07:08.910Z,73.73
2017-05-25T16:08:31.403Z,73.25
2017-05-25T16:09:53.603Z,73.92
2017-05-25T16:11:15.791Z,74.46
2017-05-25T16:12:37.972Z,74.75
2017-05-25T16:14:00.774Z,74.75
2017-05-25T16:15:23.326Z,75.27
2017-05-25T16:16:45.904Z,75.9
2017-05-25T16:18:08.421Z,74.4
2017-05-25T16:19:30.833Z,75.42
2017-05-25T16:20:53.079Z,74.79
2017-05-25T16:22:14.603Z,73.83
2017-05-25T16:23:37.092Z,73.73
2017-05-25T16:24:59.819Z,74.4
2017-05-25T16:26:21.963Z,74.88
2017-05-25T16:27:43.957Z,74.98
2017-05-25T16:29:06.140Z,74.69
2017-05-25T16:30:28.940Z,76.42
2017-05-25T16:31:51.123Z,75.07
2017-05-25T16:33:13.736Z,74.6
2017-05-25T16:34:35.584Z,74.21
2017-05-25T16:35:57.884Z,74.88
2017-05-25T16:37:20.053Z,74.98
2017-05-25T16:38:42.578Z,75.84
2017-05-25T16:40:04.168Z,75.84
2017-05-25T16:41:26.629Z,75.37
2017-05-25T16:42:48.605Z,75.27
2017-05-25T16:44:11.170Z,74.21
2017-05-25T16:45:33.326Z,75.56
2017-05-25T16:46:55.945Z,74.88
2017-05-25T16:48:17.471Z,75.65
2017-05-25T16:49:39.929Z,75.9
2017-05-25T16:51:01.784Z,76.19
2017-05-25T16:52:24.574Z,75.62
2017-05-25T16:53:46.571Z,74.94
2017-05-25T16:55:08.843Z,74.69
2017-05-25T16:56:31.301Z,75.71
2017-05-25T16:57:53.292Z,76.39
2017-05-25T16:59:15.801Z,78.08
2017-05-25T17:00:38.222Z,78.17
2017-05-25T17:02:00.366Z,78.55
2017-05-25T17:03:22.548Z,77.98
2017-05-25T17:04:44.402Z,78.17
2017-05-25T17:06:06.931Z,78.55
2017-05-25T17:07:29.102Z,78.55
2017-05-25T17:08:51.941Z,79.13
2017-05-25T17:10:13.473Z,78.27
2017-05-25T17:11:34.983Z,78.78
2017-05-25T17:12:56.535Z,78.55
2017-05-25T17:14:18.785Z,80.13
2017-05-25T17:15:40.969Z,79.99
2017-05-25T17:17:03.139Z,80.09
2017-05-25T17:18:25.618Z,79.8
2017-05-25T17:19:48.346Z,79.99
2017-05-25T17:21:09.943Z,80.28
2017-05-25T17:22:32.451Z,79.8
2017-05-25T17:23:54.300Z,80.32
2017-05-25T17:25:16.069Z,80.42
2017-05-25T17:26:38.226Z,80.57
2017-05-25T17:28:00.067Z,80.86
2017-05-25T17:29:22.243Z,81.82
2017-05-25T17:30:44.760Z,82.01
2017-05-25T17:32:07.392Z,82.4
2017-05-25T17:33:30.041Z,83.74
2017-05-25T17:34:52.249Z,84.18
2017-05-25T17:36:15.117Z,83.98
2017-05-25T17:37:37.611Z,84.27
2017-05-25T17:38:59.192Z,84.75
2017-05-25T17:40:21.060Z,84.75
2017-05-25T17:41:43.883Z,85.81
2017-05-25T17:43:06.122Z,85.71
2017-05-25T17:44:28.616Z,85.91